sensor_id;sensor_type;location;lat;lon;timestamp;pressure;altitude;pressure_sealevel;temperature;humidity
66945;BME280;53853;51.982;5.928;2023-04-03T00:02:27;102944.44;;;5.37;66.89
66945;BME280;53853;51.982;5.928;2023-04-03T00:04:57;102945.41;;;5.34;66.93
66945;BME280;53853;51.982;5.928;2023-04-03T00:07:27;102946.22;;;5.36;63.61
66945;BME280;53853;51.982;5.928;2023-04-03T00:09:57;102951.50;;;5.36;65.50
66945;BME280;53853;51.982;5.928;2023-04-03T00:12:27;102951.63;;;5.33;66.19
66945;BME280;53853;51.982;5.928;2023-04-03T00:14:59;102955.19;;;5.32;66.56
66945;BME280;53853;51.982;5.928;2023-04-03T00:17:29;102951.75;;;5.30;66.56
66945;BME280;53853;51.982;5.928;2023-04-03T00:19:59;102950.88;;;5.30;67.03
66945;BME280;53853;51.982;5.928;2023-04-03T00:22:29;102950.88;;;5.30;67.08
66945;BME280;53853;51.982;5.928;2023-04-03T00:24:59;102950.16;;;5.26;66.98
66945;BME280;53853;51.982;5.928;2023-04-03T00:27:29;102951.16;;;5.23;67.17
66945;BME280;53853;51.982;5.928;2023-04-03T00:30:02;102956.56;;;5.20;67.37
66945;BME280;53853;51.982;5.928;2023-04-03T00:32:32;102964.50;;;5.20;67.63
66945;BME280;53853;51.982;5.928;2023-04-03T00:35:03;102957.50;;;5.19;67.81
66945;BME280;53853;51.982;5.928;2023-04-03T00:37:33;102961.09;;;5.17;67.59
66945;BME280;53853;51.982;5.928;2023-04-03T00:40:04;102958.47;;;5.17;68.45
66945;BME280;53853;51.982;5.928;2023-04-03T00:42:35;102961.09;;;5.17;68.41
66945;BME280;53853;51.982;5.928;2023-04-03T00:45:39;102958.53;;;5.15;68.77
66945;BME280;53853;51.982;5.928;2023-04-03T00:48:13;102958.72;;;5.11;68.29
66945;BME280;53853;51.982;5.928;2023-04-03T00:50:45;102964.06;;;5.09;69.13
66945;BME280;53853;51.982;5.928;2023-04-03T00:53:18;102964.22;;;5.06;68.05
66945;BME280;53853;51.982;5.928;2023-04-03T00:55:50;102966.03;;;5.04;69.26
66945;BME280;53853;51.982;5.928;2023-04-03T00:58:22;102970.47;;;5.03;69.64
66945;BME280;53853;51.982;5.928;2023-04-03T01:00:59;102962.59;;;5.02;69.33
66945;BME280;53853;51.982;5.928;2023-04-03T01:03:31;102967.03;;;5.01;69.72
66945;BME280;53853;51.982;5.928;2023-04-03T01:06:03;102969.78;;;4.98;69.94
66945;BME280;53853;51.982;5.928;2023-04-03T01:08:34;102979.41;;;4.99;70.39
66945;BME280;53853;51.982;5.928;2023-04-03T01:11:05;102975.19;;;4.95;68.94
66945;BME280;53853;51.982;5.928;2023-04-03T01:13:35;102985.81;;;4.94;69.32
66945;BME280;53853;51.982;5.928;2023-04-03T01:16:09;102978.06;;;4.89;69.49
66945;BME280;53853;51.982;5.928;2023-04-03T01:18:40;102987.78;;;4.88;70.25
66945;BME280;53853;51.982;5.928;2023-04-03T01:24:34;102982.69;;;4.84;70.23
66945;BME280;53853;51.982;5.928;2023-04-03T01:27:10;102982.88;;;4.79;69.98
66945;BME280;53853;51.982;5.928;2023-04-03T01:29:41;102982.97;;;4.76;69.68
66945;BME280;53853;51.982;5.928;2023-04-03T01:32:14;102982.09;;;4.76;70.62
66945;BME280;53853;51.982;5.928;2023-04-03T01:34:44;102982.09;;;4.76;70.98
66945;BME280;53853;51.982;5.928;2023-04-03T01:37:14;102982.16;;;4.74;70.71
66945;BME280;53853;51.982;5.928;2023-04-03T01:39:44;102984.00;;;4.72;70.81
66945;BME280;53853;51.982;5.928;2023-04-03T01:42:14;102998.94;;;4.73;71.81
66945;BME280;53853;51.982;5.928;2023-04-03T01:44:45;102991.13;;;4.70;71.18
66945;BME280;53853;51.982;5.928;2023-04-03T01:47:17;102996.34;;;4.71;71.94
66945;BME280;53853;51.982;5.928;2023-04-03T01:49:47;102992.94;;;4.69;72.57
66945;BME280;53853;51.982;5.928;2023-04-03T01:52:17;102990.34;;;4.68;73.00
66945;BME280;53853;51.982;5.928;2023-04-03T01:54:47;102993.88;;;4.67;73.13
66945;BME280;53853;51.982;5.928;2023-04-03T01:57:17;102991.47;;;4.61;70.49
66945;BME280;53853;51.982;5.928;2023-04-03T01:59:47;102994.22;;;4.58;70.76
66945;BME280;53853;51.982;5.928;2023-04-03T02:02:20;103001.25;;;4.59;71.45
66945;BME280;53853;51.982;5.928;2023-04-03T02:04:52;103001.25;;;4.59;72.88
66945;BME280;53853;51.982;5.928;2023-04-03T02:07:22;103002.22;;;4.56;72.53
66945;BME280;53853;51.982;5.928;2023-04-03T02:09:52;103004.84;;;4.56;73.30
66945;BME280;53853;51.982;5.928;2023-04-03T02:12:22;103002.25;;;4.54;73.25
66945;BME280;53853;51.982;5.928;2023-04-03T02:14:52;102998.78;;;4.54;73.66
66945;BME280;53853;51.982;5.928;2023-04-03T02:17:25;103001.53;;;4.51;73.20
66945;BME280;53853;51.982;5.928;2023-04-03T02:19:55;102996.31;;;4.49;73.37
66945;BME280;53853;51.982;5.928;2023-04-03T02:22:25;103004.28;;;4.48;73.75
66945;BME280;53853;51.982;5.928;2023-04-03T02:24:56;103006.19;;;4.44;72.83
66945;BME280;53853;51.982;5.928;2023-04-03T02:27:25;103005.28;;;4.44;73.09
66945;BME280;53853;51.982;5.928;2023-04-03T02:29:56;103002.78;;;4.41;72.91
66945;BME280;53853;51.982;5.928;2023-04-03T02:32:28;103021.19;;;4.42;73.80
66945;BME280;53853;51.982;5.928;2023-04-03T02:34:59;103009.78;;;4.42;74.81
66945;BME280;53853;51.982;5.928;2023-04-03T02:37:29;103008.94;;;4.41;74.76
66945;BME280;53853;51.982;5.928;2023-04-03T02:39:59;103009.78;;;4.42;75.02
66945;BME280;53853;51.982;5.928;2023-04-03T02:42:29;103006.47;;;4.37;74.78
66945;BME280;53853;51.982;5.928;2023-04-03T02:44:59;103020.56;;;4.35;73.69
66945;BME280;53853;51.982;5.928;2023-04-03T02:47:32;103011.06;;;4.31;73.07
66945;BME280;53853;51.982;5.928;2023-04-03T02:50:02;103007.56;;;4.29;72.79
66945;BME280;53853;51.982;5.928;2023-04-03T02:52:33;103007.56;;;4.29;74.19
66945;BME280;53853;51.982;5.928;2023-04-03T02:55:04;103006.78;;;4.27;73.55
66945;BME280;53853;51.982;5.928;2023-04-03T02:57:34;103018.25;;;4.26;74.23
66945;BME280;53853;51.982;5.928;2023-04-03T03:00:05;103017.41;;;4.26;75.18
66945;BME280;53853;51.982;5.928;2023-04-03T03:02:39;103019.25;;;4.24;75.13
66945;BME280;53853;51.982;5.928;2023-04-03T03:05:09;103026.31;;;4.22;75.09
66945;BME280;53853;51.982;5.928;2023-04-03T03:07:39;103016.72;;;4.21;75.62
66945;BME280;53853;51.982;5.928;2023-04-03T03:10:10;103028.16;;;4.20;75.26
66945;BME280;53853;51.982;5.928;2023-04-03T03:12:40;103026.50;;;4.17;74.72
66945;BME280;53853;51.982;5.928;2023-04-03T03:15:10;103028.31;;;4.15;74.98
66945;BME280;53853;51.982;5.928;2023-04-03T03:17:43;103031.88;;;4.14;75.65
66945;BME280;53853;51.982;5.928;2023-04-03T03:20:14;103030.16;;;4.13;76.01
66945;BME280;53853;51.982;5.928;2023-04-03T03:22:44;103026.84;;;4.08;75.38
66945;BME280;53853;51.982;5.928;2023-04-03T03:25:14;103025.16;;;4.05;75.91
66945;BME280;53853;51.982;5.928;2023-04-03T03:27:44;103036.59;;;4.04;75.98
66945;BME280;53853;51.982;5.928;2023-04-03T03:30:14;103033.31;;;3.97;73.64
66945;BME280;53853;51.982;5.928;2023-04-03T03:32:46;103040.44;;;3.95;74.16
66945;BME280;53853;51.982;5.928;2023-04-03T03:35:16;103033.38;;;3.96;75.68
66945;BME280;53853;51.982;5.928;2023-04-03T03:37:48;103049.25;;;3.94;75.35
66945;BME280;53853;51.982;5.928;2023-04-03T03:40:18;103048.41;;;3.94;75.92
66945;BME280;53853;51.982;5.928;2023-04-03T03:42:48;103046.72;;;3.91;75.74
66945;BME280;53853;51.982;5.928;2023-04-03T03:45:18;103036.22;;;3.90;76.18
66945;BME280;53853;51.982;5.928;2023-04-03T03:47:50;103048.56;;;3.89;76.19
66945;BME280;53853;51.982;5.928;2023-04-03T03:50:20;103050.44;;;3.86;75.72
66945;BME280;53853;51.982;5.928;2023-04-03T03:52:51;103044.28;;;3.85;76.21
66945;BME280;53853;51.982;5.928;2023-04-03T03:55:21;103047.03;;;3.82;75.94
66945;BME280;53853;51.982;5.928;2023-04-03T03:57:54;103052.44;;;3.77;75.83
66945;BME280;53853;51.982;5.928;2023-04-03T04:00:24;103049.00;;;3.75;76.47
66945;BME280;53853;51.982;5.928;2023-04-03T04:02:59;103053.53;;;3.72;76.05
66945;BME280;53853;51.982;5.928;2023-04-03T04:05:31;103051.00;;;3.69;76.01
66945;BME280;53853;51.982;5.928;2023-04-03T04:08:02;103051.94;;;3.66;76.16
66945;BME280;53853;51.982;5.928;2023-04-03T04:10:32;103055.47;;;3.67;76.80
66945;BME280;53853;51.982;5.928;2023-04-03T04:13:01;103058.22;;;3.63;76.39
66945;BME280;53853;51.982;5.928;2023-04-03T04:15:32;103054.84;;;3.58;76.07
66945;BME280;53853;51.982;5.928;2023-04-03T04:18:04;103058.50;;;3.54;75.65
66945;BME280;53853;51.982;5.928;2023-04-03T04:20:35;103048.81;;;3.55;76.55
66945;BME280;53853;51.982;5.928;2023-04-03T04:23:04;103054.19;;;3.52;76.53
66945;BME280;53853;51.982;5.928;2023-04-03T04:25:35;103060.47;;;3.48;74.95
66945;BME280;53853;51.982;5.928;2023-04-03T04:28:06;103063.97;;;3.48;76.33
66945;BME280;53853;51.982;5.928;2023-04-03T04:30:36;103061.38;;;3.47;76.58
66945;BME280;53853;51.982;5.928;2023-04-03T04:33:09;103058.84;;;3.43;76.79
66945;BME280;53853;51.982;5.928;2023-04-03T04:35:42;103057.09;;;3.42;77.04
66945;BME280;53853;51.982;5.928;2023-04-03T04:38:13;103060.75;;;3.38;76.33
66945;BME280;53853;51.982;5.928;2023-04-03T04:40:43;103065.22;;;3.36;77.08
66945;BME280;53853;51.982;5.928;2023-04-03T04:43:13;103067.03;;;3.34;76.97
66945;BME280;53853;51.982;5.928;2023-04-03T04:45:45;103060.19;;;3.29;76.25
66945;BME280;53853;51.982;5.928;2023-04-03T04:48:21;103074.19;;;3.31;77.09
66945;BME280;53853;51.982;5.928;2023-04-03T04:50:51;103067.22;;;3.28;76.64
66945;BME280;53853;51.982;5.928;2023-04-03T04:53:22;103077.84;;;3.25;75.90
66945;BME280;53853;51.982;5.928;2023-04-03T04:55:52;103077.84;;;3.25;77.03
66945;BME280;53853;51.982;5.928;2023-04-03T04:58:24;103077.09;;;3.21;75.68
66945;BME280;53853;51.982;5.928;2023-04-03T05:00:59;103089.34;;;3.22;76.44
66945;BME280;53853;51.982;5.928;2023-04-03T05:03:33;103090.25;;;3.21;76.52
66945;BME280;53853;51.982;5.928;2023-04-03T05:06:04;103096.44;;;3.20;76.87
66945;BME280;53853;51.982;5.928;2023-04-03T05:08:35;103094.72;;;3.19;77.24
66945;BME280;53853;51.982;5.928;2023-04-03T05:11:05;103092.97;;;3.18;77.22
66945;BME280;53853;51.982;5.928;2023-04-03T05:13:36;103092.19;;;3.16;76.73
66945;BME280;53853;51.982;5.928;2023-04-03T05:16:06;103101.03;;;3.14;75.54
66945;BME280;53853;51.982;5.928;2023-04-03T05:18:39;103094.91;;;3.13;75.74
66945;BME280;53853;51.982;5.928;2023-04-03T05:21:16;103095.00;;;3.10;75.58
66945;BME280;53853;51.982;5.928;2023-04-03T05:23:47;103100.22;;;3.12;76.80
66945;BME280;53853;51.982;5.928;2023-04-03T05:26:17;103098.44;;;3.12;76.05
66945;BME280;53853;51.982;5.928;2023-04-03T05:28:49;103101.91;;;3.14;76.42
66945;BME280;53853;51.982;5.928;2023-04-03T05:31:20;103100.97;;;3.15;77.53
66945;BME280;53853;51.982;5.928;2023-04-03T05:33:53;103102.81;;;3.13;76.43
66945;BME280;53853;51.982;5.928;2023-04-03T05:36:23;103110.63;;;3.16;76.87
66945;BME280;53853;51.982;5.928;2023-04-03T05:38:57;103119.50;;;3.12;75.01
66945;BME280;53853;51.982;5.928;2023-04-03T05:41:27;103114.16;;;3.15;76.17
66945;BME280;53853;51.982;5.928;2023-04-03T05:43:57;103117.69;;;3.16;76.52
66945;BME280;53853;51.982;5.928;2023-04-03T05:46:27;103121.16;;;3.16;76.50
66945;BME280;53853;51.982;5.928;2023-04-03T05:49:03;103123.69;;;3.19;76.46
66945;BME280;53853;51.982;5.928;2023-04-03T05:51:36;103128.97;;;3.19;75.57
66945;BME280;53853;51.982;5.928;2023-04-03T05:54:20;103128.13;;;3.19;74.22
66945;BME280;53853;51.982;5.928;2023-04-03T05:56:55;103126.25;;;3.22;75.02
66945;BME280;53853;51.982;5.928;2023-04-03T05:59:26;103123.56;;;3.24;75.00
66945;BME280;53853;51.982;5.928;2023-04-03T06:01:58;103123.47;;;3.27;75.59
66945;BME280;53853;51.982;5.928;2023-04-03T06:04:32;103120.72;;;3.32;75.96
66945;BME280;53853;51.982;5.928;2023-04-03T06:07:02;103125.91;;;3.35;76.00
66945;BME280;53853;51.982;5.928;2023-04-03T06:09:32;103135.50;;;3.36;73.89
66945;BME280;53853;51.982;5.928;2023-04-03T06:12:03;103138.06;;;3.39;75.03
66945;BME280;53853;51.982;5.928;2023-04-03T06:14:33;103134.44;;;3.43;74.97
66945;BME280;53853;51.982;5.928;2023-04-03T06:17:03;103130.91;;;3.42;72.61
66945;BME280;53853;51.982;5.928;2023-04-03T06:19:36;103128.88;;;3.52;75.55
66945;BME280;53853;51.982;5.928;2023-04-03T06:22:08;103134.16;;;3.52;74.30
66945;BME280;53853;51.982;5.928;2023-04-03T06:24:38;103144.56;;;3.57;74.78
66945;BME280;53853;51.982;5.928;2023-04-03T06:27:09;103141.69;;;3.63;75.11
66945;BME280;53853;51.982;5.928;2023-04-03T06:29:40;103141.59;;;3.66;74.88
66945;BME280;53853;51.982;5.928;2023-04-03T06:32:11;103152.06;;;3.69;74.88
66945;BME280;53853;51.982;5.928;2023-04-03T06:34:44;103150.25;;;3.71;74.47
66945;BME280;53853;51.982;5.928;2023-04-03T06:37:15;103148.34;;;3.76;75.16
66945;BME280;53853;51.982;5.928;2023-04-03T06:39:46;103151.78;;;3.78;73.97
66945;BME280;53853;51.982;5.928;2023-04-03T06:42:16;103148.25;;;3.79;72.87
66945;BME280;53853;51.982;5.928;2023-04-03T06:44:54;103163.91;;;3.84;72.50
66945;BME280;53853;51.982;5.928;2023-04-03T06:47:24;103162.31;;;3.78;69.60
66945;BME280;53853;51.982;5.928;2023-04-03T06:49:56;103155.16;;;3.82;70.98
66945;BME280;53853;51.982;5.928;2023-04-03T06:52:26;103160.25;;;3.88;71.29
66945;BME280;53853;51.982;5.928;2023-04-03T06:54:57;103159.97;;;3.97;72.87
66945;BME280;53853;51.982;5.928;2023-04-03T06:57:27;103159.25;;;3.92;69.47
66945;BME280;53853;51.982;5.928;2023-04-03T06:59:57;103167.88;;;3.97;70.77
66945;BME280;53853;51.982;5.928;2023-04-03T07:02:27;103165.94;;;4.03;71.42
66945;BME280;53853;51.982;5.928;2023-04-03T07:04:59;103168.53;;;4.04;70.11
66945;BME280;53853;51.982;5.928;2023-04-03T07:07:29;103164.16;;;4.05;70.81
66945;BME280;53853;51.982;5.928;2023-04-03T07:10:00;103172.91;;;4.05;69.76
66945;BME280;53853;51.982;5.928;2023-04-03T07:12:30;103179.03;;;4.06;69.86
66945;BME280;53853;51.982;5.928;2023-04-03T07:15:00;103180.72;;;4.08;69.67
66945;BME280;53853;51.982;5.928;2023-04-03T07:17:30;103185.97;;;4.10;69.38
66945;BME280;53853;51.982;5.928;2023-04-03T07:20:03;103183.94;;;4.18;70.51
66945;BME280;53853;51.982;5.928;2023-04-03T07:22:34;103184.69;;;4.22;70.90
66945;BME280;53853;51.982;5.928;2023-04-03T07:25:04;103197.31;;;4.12;66.74
66945;BME280;53853;51.982;5.928;2023-04-03T07:27:35;103190.19;;;4.14;68.56
66945;BME280;53853;51.982;5.928;2023-04-03T07:30:06;103195.38;;;4.17;68.14
66945;BME280;53853;51.982;5.928;2023-04-03T07:32:36;103203.09;;;4.23;69.09
66945;BME280;53853;51.982;5.928;2023-04-03T07:35:09;103201.41;;;4.22;66.33
66945;BME280;53853;51.982;5.928;2023-04-03T07:37:39;103202.22;;;4.24;67.30
66945;BME280;53853;51.982;5.928;2023-04-03T07:40:11;103211.59;;;4.33;68.27
66945;BME280;53853;51.982;5.928;2023-04-03T07:42:41;103207.09;;;4.37;65.35
66945;BME280;53853;51.982;5.928;2023-04-03T07:45:11;103209.56;;;4.41;66.11
66945;BME280;53853;51.982;5.928;2023-04-03T07:47:41;103210.31;;;4.45;66.35
66945;BME280;53853;51.982;5.928;2023-04-03T07:50:14;103204.84;;;4.51;67.04
66945;BME280;53853;51.982;5.928;2023-04-03T07:52:45;103203.69;;;4.58;66.64
66945;BME280;53853;51.982;5.928;2023-04-03T07:55:15;103206.03;;;4.67;67.89
66945;BME280;53853;51.982;5.928;2023-04-03T07:57:45;103206.63;;;4.76;67.78
66945;BME280;53853;51.982;5.928;2023-04-03T08:00:16;103208.16;;;4.83;63.64
66945;BME280;53853;51.982;5.928;2023-04-03T08:02:47;103200.97;;;4.86;64.11
66945;BME280;53853;51.982;5.928;2023-04-03T08:05:21;103206.00;;;4.94;65.50
66945;BME280;53853;51.982;5.928;2023-04-03T08:07:52;103201.38;;;4.99;61.29
66945;BME280;53853;51.982;5.928;2023-04-03T08:10:22;103201.22;;;5.04;62.03
66945;BME280;53853;51.982;5.928;2023-04-03T08:12:51;103211.75;;;5.05;61.83
66945;BME280;53853;51.982;5.928;2023-04-03T08:15:21;103207.09;;;5.12;62.42
66945;BME280;53853;51.982;5.928;2023-04-03T08:17:51;103213.78;;;5.22;64.10
66945;BME280;53853;51.982;5.928;2023-04-03T08:20:24;103220.44;;;5.33;64.48
66945;BME280;53853;51.982;5.928;2023-04-03T08:22:54;103218.41;;;5.41;61.59
66945;BME280;53853;51.982;5.928;2023-04-03T08:25:24;103219.19;;;5.43;61.10
66945;BME280;53853;51.982;5.928;2023-04-03T08:27:56;103220.94;;;5.44;58.46
66945;BME280;53853;51.982;5.928;2023-04-03T08:30:26;103224.25;;;5.49;59.51
66945;BME280;53853;51.982;5.928;2023-04-03T08:32:56;103224.81;;;5.57;59.56
66945;BME280;53853;51.982;5.928;2023-04-03T08:35:28;103221.16;;;5.61;60.05
66945;BME280;53853;51.982;5.928;2023-04-03T08:37:58;103216.53;;;5.67;58.36
66945;BME280;53853;51.982;5.928;2023-04-03T08:40:28;103219.69;;;5.76;59.54
66945;BME280;53853;51.982;5.928;2023-04-03T08:43:10;103219.50;;;5.81;57.52
66945;BME280;53853;51.982;5.928;2023-04-03T08:45:50;103228.84;;;5.90;59.12
66945;BME280;53853;51.982;5.928;2023-04-03T08:48:21;103222.53;;;5.94;56.07
66945;BME280;53853;51.982;5.928;2023-04-03T08:50:59;103226.72;;;6.01;54.35
66945;BME280;53853;51.982;5.928;2023-04-03T08:53:33;103222.22;;;6.03;50.69
66945;BME280;53853;51.982;5.928;2023-04-03T08:56:06;103228.97;;;6.10;49.36
66945;BME280;53853;51.982;5.928;2023-04-03T08:58:42;103215.72;;;6.10;49.43
66945;BME280;53853;51.982;5.928;2023-04-03T09:01:19;103223.53;;;6.13;51.00
66945;BME280;53853;51.982;5.928;2023-04-03T09:03:49;103217.75;;;6.26;54.33
66945;BME280;53853;51.982;5.928;2023-04-03T09:06:23;103213.88;;;6.34;48.28
66945;BME280;53853;51.982;5.928;2023-04-03T09:09:06;103222.19;;;6.47;49.62
66945;BME280;53853;51.982;5.928;2023-04-03T09:11:45;103226.22;;;6.56;49.87
66945;BME280;53853;51.982;5.928;2023-04-03T09:14:20;103225.09;;;6.62;48.63
66945;BME280;53853;51.982;5.928;2023-04-03T09:16:55;103225.63;;;6.70;49.09
66945;BME280;53853;51.982;5.928;2023-04-03T09:19:35;103225.31;;;6.78;44.08
66945;BME280;53853;51.982;5.928;2023-04-03T09:22:16;103227.63;;;6.85;44.49
66945;BME280;53853;51.982;5.928;2023-04-03T09:24:49;103233.72;;;6.87;43.59
66945;BME280;53853;51.982;5.928;2023-04-03T09:27:19;103224.84;;;6.88;43.02
66945;BME280;53853;51.982;5.928;2023-04-03T09:29:53;103220.97;;;6.96;42.34
66945;BME280;53853;51.982;5.928;2023-04-03T09:32:29;103213.75;;;6.99;41.02
66945;BME280;53853;51.982;5.928;2023-04-03T09:35:02;103218.06;;;7.02;43.28
66945;BME280;53853;51.982;5.928;2023-04-03T09:37:40;103215.28;;;7.05;39.48
66945;BME280;53853;51.982;5.928;2023-04-03T09:40:30;103217.81;;;7.08;42.10
66945;BME280;53853;51.982;5.928;2023-04-03T09:43:03;103211.44;;;7.12;42.72
66945;BME280;53853;51.982;5.928;2023-04-03T09:45:49;103212.72;;;7.22;42.20
66945;BME280;53853;51.982;5.928;2023-04-03T09:48:20;103225.84;;;7.25;43.60
66945;BME280;53853;51.982;5.928;2023-04-03T09:50:57;103212.19;;;7.35;43.94
66945;BME280;53853;51.982;5.928;2023-04-03T09:53:33;103207.94;;;7.31;39.32
66945;BME280;53853;51.982;5.928;2023-04-03T09:56:09;103201.72;;;7.32;40.98
66945;BME280;53853;51.982;5.928;2023-04-03T09:58:50;103206.81;;;7.36;41.69
66945;BME280;53853;51.982;5.928;2023-04-03T10:01:28;103203.81;;;7.44;39.18
66945;BME280;53853;51.982;5.928;2023-04-03T10:04:07;103203.94;;;7.41;39.10
66945;BME280;53853;51.982;5.928;2023-04-03T10:06:40;103199.91;;;7.51;39.52
66945;BME280;53853;51.982;5.928;2023-04-03T10:09:20;103196.06;;;7.58;39.92
66945;BME280;53853;51.982;5.928;2023-04-03T10:12:02;103199.28;;;7.65;39.76
66945;BME280;53853;51.982;5.928;2023-04-03T10:14:35;103206.53;;;7.61;38.43
66945;BME280;53853;51.982;5.928;2023-04-03T10:17:20;103200.47;;;7.58;37.48
66945;BME280;53853;51.982;5.928;2023-04-03T10:19:57;103188.72;;;7.64;40.25
66945;BME280;53853;51.982;5.928;2023-04-03T10:22:37;103190.25;;;7.69;39.08
66945;BME280;53853;51.982;5.928;2023-04-03T10:25:20;103185.56;;;7.74;42.98
66945;BME280;53853;51.982;5.928;2023-04-03T10:27:57;103179.97;;;7.80;36.75
66945;BME280;53853;51.982;5.928;2023-04-03T10:30:46;103183.25;;;7.86;38.70
66945;BME280;53853;51.982;5.928;2023-04-03T10:33:33;103181.31;;;7.89;39.84
66945;BME280;53853;51.982;5.928;2023-04-03T10:36:17;103171.88;;;7.84;35.47
66945;BME280;53853;51.982;5.928;2023-04-03T10:38:56;103166.63;;;7.82;36.02
66945;BME280;53853;51.982;5.928;2023-04-03T10:41:39;103166.63;;;7.82;38.21
66945;BME280;53853;51.982;5.928;2023-04-03T10:44:20;103162.31;;;7.79;36.82
66945;BME280;53853;51.982;5.928;2023-04-03T10:46:58;103163.91;;;7.84;39.03
66945;BME280;53853;51.982;5.928;2023-04-03T10:49:40;103153.75;;;7.92;41.39
66945;BME280;53853;51.982;5.928;2023-04-03T10:52:20;103141.88;;;7.99;42.46
66945;BME280;53853;51.982;5.928;2023-04-03T10:54:59;103144.00;;;8.10;38.83
66945;BME280;53853;51.982;5.928;2023-04-03T10:57:34;103143.56;;;8.19;42.26
66945;BME280;53853;51.982;5.928;2023-04-03T11:00:07;103138.09;;;8.22;40.33
66945;BME280;53853;51.982;5.928;2023-04-03T11:02:49;103137.00;;;8.26;38.19
66945;BME280;53853;51.982;5.928;2023-04-03T11:05:34;103122.00;;;8.25;38.46
66945;BME280;53853;51.982;5.928;2023-04-03T11:08:10;103128.00;;;8.29;39.56
66945;BME280;53853;51.982;5.928;2023-04-03T11:10:44;103127.94;;;8.30;38.95
66945;BME280;53853;51.982;5.928;2023-04-03T11:13:20;103121.22;;;8.41;37.48
66945;BME280;53853;51.982;5.928;2023-04-03T11:15:53;103110.28;;;8.47;38.57
66945;BME280;53853;51.982;5.928;2023-04-03T11:18:28;103101.81;;;8.56;42.94
66945;BME280;53853;51.982;5.928;2023-04-03T11:21:03;103115.59;;;8.64;42.49
66945;BME280;53853;51.982;5.928;2023-04-03T11:23:35;103113.94;;;8.62;33.79
66945;BME280;53853;51.982;5.928;2023-04-03T11:26:10;103119.34;;;8.60;37.79
66945;BME280;53853;51.982;5.928;2023-04-03T11:28:44;103123.56;;;8.64;36.70
66945;BME280;53853;51.982;5.928;2023-04-03T11:31:35;103117.81;;;8.72;39.61
66945;BME280;53853;51.982;5.928;2023-04-03T11:34:19;103113.22;;;8.76;36.48
66945;BME280;53853;51.982;5.928;2023-04-03T11:36:55;103113.13;;;8.77;39.30
66945;BME280;53853;51.982;5.928;2023-04-03T11:39:28;103118.03;;;8.85;39.33
66945;BME280;53853;51.982;5.928;2023-04-03T11:42:15;103108.03;;;8.90;38.55
66945;BME280;53853;51.982;5.928;2023-04-03T11:44:48;103106.97;;;8.93;37.16
66945;BME280;53853;51.982;5.928;2023-04-03T11:47:45;103110.34;;;8.96;37.27
66945;BME280;53853;51.982;5.928;2023-04-03T11:50:31;103101.56;;;8.94;36.96
66945;BME280;53853;51.982;5.928;2023-04-03T11:53:10;103101.66;;;8.93;38.25
66945;BME280;53853;51.982;5.928;2023-04-03T11:55:56;103108.38;;;9.00;38.48
66945;BME280;53853;51.982;5.928;2023-04-03T11:58:28;103102.97;;;9.01;37.34
66945;BME280;53853;51.982;5.928;2023-04-03T12:01:07;103079.19;;;8.98;36.31
66945;BME280;53853;51.982;5.928;2023-04-03T12:10:14;103073.97;;;9.13;38.71
66945;BME280;53853;51.982;5.928;2023-04-03T12:12:59;103080.94;;;9.15;35.22
66945;BME280;53853;51.982;5.928;2023-04-03T12:15:54;103070.63;;;9.25;37.83
66945;BME280;53853;51.982;5.928;2023-04-03T12:18:57;103072.16;;;9.29;37.53
66945;BME280;53853;51.982;5.928;2023-04-03T12:22:07;103072.97;;;9.31;41.93
66945;BME280;53853;51.982;5.928;2023-04-03T12:24:37;103064.34;;;9.42;39.57
66945;BME280;53853;51.982;5.928;2023-04-03T12:27:30;103066.38;;;9.53;38.86
66945;BME280;53853;51.982;5.928;2023-04-03T12:30:21;103069.94;;;9.53;38.44
66945;BME280;53853;51.982;5.928;2023-04-03T12:33:20;103071.44;;;9.57;42.43
66945;BME280;53853;51.982;5.928;2023-04-03T12:36:05;103069.28;;;9.64;40.10
66945;BME280;53853;51.982;5.928;2023-04-03T12:38:49;103069.03;;;9.69;38.19
66945;BME280;53853;51.982;5.928;2023-04-03T12:41:30;103061.91;;;9.69;37.48
66945;BME280;53853;51.982;5.928;2023-04-03T12:44:35;103059.91;;;9.73;39.01
66945;BME280;53853;51.982;5.928;2023-04-03T12:47:22;103080.56;;;9.69;39.08
66945;BME280;53853;51.982;5.928;2023-04-03T12:49:53;103070.44;;;9.60;36.80
66945;BME280;53853;51.982;5.928;2023-04-03T12:52:37;103056.94;;;9.63;36.87
66945;BME280;53853;51.982;5.928;2023-04-03T12:55:15;103042.09;;;9.59;35.07
66945;BME280;53853;51.982;5.928;2023-04-03T12:57:45;103044.47;;;9.64;37.41
66945;BME280;53853;51.982;5.928;2023-04-03T13:00:28;103056.78;;;9.66;36.23
66945;BME280;53853;51.982;5.928;2023-04-03T13:03:00;103042.56;;;9.66;37.13
66945;BME280;53853;51.982;5.928;2023-04-03T13:05:32;103041.91;;;9.62;38.03
66945;BME280;53853;51.982;5.928;2023-04-03T13:08:08;103035.66;;;9.63;39.82
66945;BME280;53853;51.982;5.928;2023-04-03T13:10:51;103033.78;;;9.49;35.49
66945;BME280;53853;51.982;5.928;2023-04-03T13:13:22;103035.84;;;9.44;39.22
66945;BME280;53853;51.982;5.928;2023-04-03T13:15:53;103026.81;;;9.47;37.89
66945;BME280;53853;51.982;5.928;2023-04-03T13:18:29;103029.31;;;9.50;38.41
66945;BME280;53853;51.982;5.928;2023-04-03T13:21:04;103028.38;;;9.51;38.03
66945;BME280;53853;51.982;5.928;2023-04-03T13:23:42;103010.13;;;9.59;40.44
66945;BME280;53853;51.982;5.928;2023-04-03T13:26:14;103017.94;;;9.62;38.45
66945;BME280;53853;51.982;5.928;2023-04-03T13:28:46;103019.31;;;9.69;36.80
66945;BME280;53853;51.982;5.928;2023-04-03T13:31:21;103014.75;;;9.71;37.39
66945;BME280;53853;51.982;5.928;2023-04-03T13:33:57;103007.53;;;9.73;40.12
66945;BME280;53853;51.982;5.928;2023-04-03T13:36:31;103008.75;;;9.68;37.69
66945;BME280;53853;51.982;5.928;2023-04-03T13:39:06;103009.88;;;9.64;36.80
66945;BME280;53853;51.982;5.928;2023-04-03T13:41:38;103018.53;;;9.67;39.05
66945;BME280;53853;51.982;5.928;2023-04-03T13:44:33;103010.09;;;9.75;36.59
66945;BME280;53853;51.982;5.928;2023-04-03T13:47:18;103010.66;;;9.80;38.85